sensor_id;sensor_type;location;lat;lon;timestamp;P1;durP1;ratioP1;P2;durP2;ratioP2
28772;SDS011;15925;51.222;5.678;2022-10-17T00:00:36;6.43;;;2.20;;
28772;SDS011;15925;51.222;5.678;2022-10-17T00:03:02;4.70;;;2.87;;
28772;SDS011;15925;51.222;5.678;2022-10-17T00:05:28;5.90;;;2.80;;
28772;SDS011;15925;51.222;5.678;2022-10-17T00:07:54;5.55;;;3.70;;
28772;SDS011;15925;51.222;5.678;2022-10-17T00:10:20;5.67;;;3.40;;
28772;SDS011;15925;51.222;5.678;2022-10-17T00:12:45;4.50;;;2.42;;
28772;SDS011;15925;51.222;5.678;2022-10-17T00:15:15;9.85;;;3.30;;
28772;SDS011;15925;51.222;5.678;2022-10-17T00:17:43;6.60;;;3.33;;
28772;SDS011;15925;51.222;5.678;2022-10-17T00:20:09;7.77;;;2.87;;
28772;SDS011;15925;51.222;5.678;2022-10-17T00:22:35;7.93;;;3.78;;
28772;SDS011;15925;51.222;5.678;2022-10-17T00:25:01;4.70;;;2.93;;
28772;SDS011;15925;51.222;5.678;2022-10-17T00:27:26;8.37;;;3.70;;
28772;SDS011;15925;51.222;5.678;2022-10-17T00:29:52;5.40;;;2.77;;
28772;SDS011;15925;51.222;5.678;2022-10-17T00:32:18;8.50;;;3.43;;
28772;SDS011;15925;51.222;5.678;2022-10-17T00:34:45;6.93;;;4.15;;
28772;SDS011;15925;51.222;5.678;2022-10-17T00:37:11;8.73;;;3.70;;
28772;SDS011;15925;51.222;5.678;2022-10-17T00:39:37;9.97;;;4.50;;
28772;SDS011;15925;51.222;5.678;2022-10-17T00:42:03;7.57;;;4.28;;
28772;SDS011;15925;51.222;5.678;2022-10-17T00:46:55;12.43;;;5.37;;
28772;SDS011;15925;51.222;5.678;2022-10-17T00:49:23;8.35;;;4.30;;
28772;SDS011;15925;51.222;5.678;2022-10-17T00:51:53;9.82;;;5.10;;
28772;SDS011;15925;51.222;5.678;2022-10-17T00:54:22;6.22;;;4.47;;
28772;SDS011;15925;51.222;5.678;2022-10-17T00:56:51;7.25;;;4.13;;
28772;SDS011;15925;51.222;5.678;2022-10-17T00:59:17;14.10;;;6.28;;
28772;SDS011;15925;51.222;5.678;2022-10-17T01:01:47;6.47;;;4.10;;
28772;SDS011;15925;51.222;5.678;2022-10-17T01:04:27;7.38;;;4.63;;
28772;SDS011;15925;51.222;5.678;2022-10-17T01:06:53;10.30;;;3.70;;
28772;SDS011;15925;51.222;5.678;2022-10-17T01:09:18;8.83;;;4.90;;
28772;SDS011;15925;51.222;5.678;2022-10-17T01:22:44;7.95;;;4.60;;
28772;SDS011;15925;51.222;5.678;2022-10-17T01:29:00;14.27;;;4.57;;
28772;SDS011;15925;51.222;5.678;2022-10-17T01:31:11;10.75;;;4.55;;
28772;SDS011;15925;51.222;5.678;2022-10-17T01:33:59;10.07;;;4.30;;
28772;SDS011;15925;51.222;5.678;2022-10-17T01:36:41;7.88;;;3.90;;
28772;SDS011;15925;51.222;5.678;2022-10-17T01:40:09;5.28;;;3.05;;
28772;SDS011;15925;51.222;5.678;2022-10-17T01:42:25;6.80;;;3.80;;
28772;SDS011;15925;51.222;5.678;2022-10-17T01:44:56;5.82;;;3.92;;
28772;SDS011;15925;51.222;5.678;2022-10-17T01:47:36;4.47;;;2.90;;
28772;SDS011;15925;51.222;5.678;2022-10-17T01:50:05;6.90;;;2.80;;
28772;SDS011;15925;51.222;5.678;2022-10-17T01:52:37;7.13;;;3.95;;
28772;SDS011;15925;51.222;5.678;2022-10-17T01:55:09;8.40;;;4.13;;
28772;SDS011;15925;51.222;5.678;2022-10-17T01:57:39;9.88;;;3.85;;
28772;SDS011;15925;51.222;5.678;2022-10-17T02:00:12;5.20;;;3.55;;
28772;SDS011;15925;51.222;5.678;2022-10-17T02:02:42;10.20;;;3.60;;
28772;SDS011;15925;51.222;5.678;2022-10-17T02:05:09;6.18;;;3.85;;
28772;SDS011;15925;51.222;5.678;2022-10-17T02:07:35;11.63;;;4.72;;
28772;SDS011;15925;51.222;5.678;2022-10-17T02:10:02;6.83;;;4.03;;
28772;SDS011;15925;51.222;5.678;2022-10-17T02:17:45;7.13;;;3.45;;
28772;SDS011;15925;51.222;5.678;2022-10-17T02:20:27;5.25;;;3.63;;
28772;SDS011;15925;51.222;5.678;2022-10-17T02:23:10;6.25;;;3.22;;
28772;SDS011;15925;51.222;5.678;2022-10-17T02:28:22;11.00;;;3.55;;
28772;SDS011;15925;51.222;5.678;2022-10-17T02:33:24;6.07;;;2.83;;
28772;SDS011;15925;51.222;5.678;2022-10-17T02:35:55;12.38;;;2.55;;
28772;SDS011;15925;51.222;5.678;2022-10-17T02:38:26;4.78;;;3.00;;
28772;SDS011;15925;51.222;5.678;2022-10-17T02:40:55;5.18;;;2.58;;
28772;SDS011;15925;51.222;5.678;2022-10-17T02:43:21;5.20;;;2.72;;
28772;SDS011;15925;51.222;5.678;2022-10-17T02:45:50;4.97;;;2.58;;
28772;SDS011;15925;51.222;5.678;2022-10-17T02:51:03;8.25;;;2.47;;
28772;SDS011;15925;51.222;5.678;2022-10-17T02:54:45;7.82;;;3.75;;
28772;SDS011;15925;51.222;5.678;2022-10-17T02:56:53;9.73;;;3.40;;
28772;SDS011;15925;51.222;5.678;2022-10-17T02:59:23;6.63;;;2.97;;
28772;SDS011;15925;51.222;5.678;2022-10-17T03:01:50;8.93;;;3.25;;
28772;SDS011;15925;51.222;5.678;2022-10-17T03:04:17;5.13;;;2.50;;
28772;SDS011;15925;51.222;5.678;2022-10-17T03:06:43;4.65;;;3.28;;
28772;SDS011;15925;51.222;5.678;2022-10-17T03:09:10;7.45;;;2.95;;
28772;SDS011;15925;51.222;5.678;2022-10-17T03:11:36;9.60;;;4.38;;
28772;SDS011;15925;51.222;5.678;2022-10-17T03:14:03;11.48;;;3.60;;
28772;SDS011;15925;51.222;5.678;2022-10-17T03:16:30;12.55;;;3.60;;
28772;SDS011;15925;51.222;5.678;2022-10-17T03:18:56;7.67;;;4.13;;
28772;SDS011;15925;51.222;5.678;2022-10-17T03:21:21;4.80;;;2.87;;
28772;SDS011;15925;51.222;5.678;2022-10-17T03:23:47;6.33;;;2.77;;
28772;SDS011;15925;51.222;5.678;2022-10-17T03:26:14;7.50;;;2.97;;
28772;SDS011;15925;51.222;5.678;2022-10-17T03:28:40;5.80;;;3.30;;
28772;SDS011;15925;51.222;5.678;2022-10-17T03:31:09;18.90;;;3.77;;
28772;SDS011;15925;51.222;5.678;2022-10-17T03:33:37;5.03;;;2.63;;
28772;SDS011;15925;51.222;5.678;2022-10-17T03:36:10;6.83;;;4.43;;
28772;SDS011;15925;51.222;5.678;2022-10-17T03:38:38;9.23;;;3.60;;
28772;SDS011;15925;51.222;5.678;2022-10-17T03:41:05;21.75;;;3.17;;
28772;SDS011;15925;51.222;5.678;2022-10-17T03:43:31;13.40;;;3.65;;
28772;SDS011;15925;51.222;5.678;2022-10-17T03:45:57;7.45;;;3.33;;
28772;SDS011;15925;51.222;5.678;2022-10-17T03:48:25;5.00;;;3.00;;
28772;SDS011;15925;51.222;5.678;2022-10-17T03:50:56;3.80;;;2.42;;
28772;SDS011;15925;51.222;5.678;2022-10-17T03:53:27;6.95;;;2.88;;
28772;SDS011;15925;51.222;5.678;2022-10-17T03:55:53;14.90;;;3.20;;
28772;SDS011;15925;51.222;5.678;2022-10-17T03:58:19;3.60;;;2.47;;
28772;SDS011;15925;51.222;5.678;2022-10-17T04:00:45;6.95;;;3.45;;
28772;SDS011;15925;51.222;5.678;2022-10-17T04:03:12;5.75;;;2.67;;
28772;SDS011;15925;51.222;5.678;2022-10-17T04:05:38;5.80;;;2.93;;
28772;SDS011;15925;51.222;5.678;2022-10-17T04:08:04;6.40;;;2.67;;
28772;SDS011;15925;51.222;5.678;2022-10-17T04:10:50;7.90;;;3.22;;
28772;SDS011;15925;51.222;5.678;2022-10-17T04:13:15;4.87;;;2.07;;
28772;SDS011;15925;51.222;5.678;2022-10-17T04:15:41;9.60;;;3.13;;
28772;SDS011;15925;51.222;5.678;2022-10-17T04:18:07;9.43;;;2.67;;
28772;SDS011;15925;51.222;5.678;2022-10-17T04:20:36;13.97;;;3.20;;
28772;SDS011;15925;51.222;5.678;2022-10-17T04:23:02;5.22;;;2.17;;
28772;SDS011;15925;51.222;5.678;2022-10-17T04:25:28;5.13;;;3.00;;
28772;SDS011;15925;51.222;5.678;2022-10-17T04:27:53;10.97;;;2.70;;
28772;SDS011;15925;51.222;5.678;2022-10-17T04:30:19;4.03;;;2.50;;
28772;SDS011;15925;51.222;5.678;2022-10-17T04:32:45;7.00;;;2.70;;
28772;SDS011;15925;51.222;5.678;2022-10-17T04:35:18;5.70;;;3.03;;
28772;SDS011;15925;51.222;5.678;2022-10-17T04:37:49;8.77;;;2.67;;
28772;SDS011;15925;51.222;5.678;2022-10-17T04:40:16;9.85;;;2.50;;
28772;SDS011;15925;51.222;5.678;2022-10-17T04:42:43;7.47;;;3.00;;
28772;SDS011;15925;51.222;5.678;2022-10-17T04:45:11;4.70;;;2.70;;
28772;SDS011;15925;51.222;5.678;2022-10-17T04:47:38;11.32;;;2.95;;
28772;SDS011;15925;51.222;5.678;2022-10-17T04:50:04;7.67;;;3.43;;
28772;SDS011;15925;51.222;5.678;2022-10-17T04:52:33;7.45;;;3.15;;
28772;SDS011;15925;51.222;5.678;2022-10-17T04:55:02;5.20;;;2.80;;
28772;SDS011;15925;51.222;5.678;2022-10-17T04:57:33;5.70;;;2.30;;
28772;SDS011;15925;51.222;5.678;2022-10-17T05:00:13;4.32;;;2.30;;
28772;SDS011;15925;51.222;5.678;2022-10-17T05:02:59;2.75;;;2.15;;
28772;SDS011;15925;51.222;5.678;2022-10-17T05:05:26;5.10;;;1.83;;
28772;SDS011;15925;51.222;5.678;2022-10-17T05:07:53;6.78;;;2.30;;
28772;SDS011;15925;51.222;5.678;2022-10-17T05:10:23;4.45;;;2.38;;
28772;SDS011;15925;51.222;5.678;2022-10-17T05:12:50;8.02;;;2.40;;
28772;SDS011;15925;51.222;5.678;2022-10-17T05:15:19;7.32;;;2.53;;
28772;SDS011;15925;51.222;5.678;2022-10-17T05:17:44;4.23;;;2.13;;
28772;SDS011;15925;51.222;5.678;2022-10-17T05:20:11;4.30;;;2.58;;
28772;SDS011;15925;51.222;5.678;2022-10-17T05:22:37;5.68;;;2.63;;
28772;SDS011;15925;51.222;5.678;2022-10-17T05:25:03;2.72;;;2.05;;
28772;SDS011;15925;51.222;5.678;2022-10-17T05:27:30;2.70;;;1.70;;
28772;SDS011;15925;51.222;5.678;2022-10-17T05:29:56;4.28;;;2.00;;
28772;SDS011;15925;51.222;5.678;2022-10-17T05:32:26;3.70;;;2.55;;
28772;SDS011;15925;51.222;5.678;2022-10-17T05:34:52;6.30;;;2.08;;
28772;SDS011;15925;51.222;5.678;2022-10-17T05:37:20;4.43;;;2.67;;
28772;SDS011;15925;51.222;5.678;2022-10-17T05:39:49;3.97;;;2.15;;
28772;SDS011;15925;51.222;5.678;2022-10-17T05:42:15;7.43;;;1.97;;
28772;SDS011;15925;51.222;5.678;2022-10-17T05:44:41;7.00;;;1.97;;
28772;SDS011;15925;51.222;5.678;2022-10-17T05:47:07;5.88;;;1.67;;
28772;SDS011;15925;51.222;5.678;2022-10-17T05:51:59;3.05;;;1.75;;
28772;SDS011;15925;51.222;5.678;2022-10-17T05:54:27;5.45;;;2.75;;
28772;SDS011;15925;51.222;5.678;2022-10-17T05:56:54;6.43;;;2.55;;
28772;SDS011;15925;51.222;5.678;2022-10-17T05:59:27;4.88;;;2.33;;
28772;SDS011;15925;51.222;5.678;2022-10-17T06:02:01;3.03;;;2.05;;
28772;SDS011;15925;51.222;5.678;2022-10-17T06:04:28;6.22;;;2.05;;
28772;SDS011;15925;51.222;5.678;2022-10-17T06:06:54;6.60;;;2.87;;
28772;SDS011;15925;51.222;5.678;2022-10-17T06:09:21;4.70;;;2.83;;
28772;SDS011;15925;51.222;5.678;2022-10-17T06:11:49;3.33;;;2.10;;
28772;SDS011;15925;51.222;5.678;2022-10-17T06:14:15;2.72;;;2.00;;
28772;SDS011;15925;51.222;5.678;2022-10-17T06:16:41;2.65;;;1.98;;
28772;SDS011;15925;51.222;5.678;2022-10-17T06:19:08;2.35;;;1.50;;
28772;SDS011;15925;51.222;5.678;2022-10-17T06:21:35;3.75;;;2.20;;
28772;SDS011;15925;51.222;5.678;2022-10-17T06:24:12;10.87;;;2.10;;
28772;SDS011;15925;51.222;5.678;2022-10-17T06:26:40;4.80;;;2.70;;
28772;SDS011;15925;51.222;5.678;2022-10-17T06:29:07;7.72;;;2.40;;
28772;SDS011;15925;51.222;5.678;2022-10-17T06:31:39;5.78;;;2.20;;
28772;SDS011;15925;51.222;5.678;2022-10-17T06:34:05;7.38;;;1.85;;
28772;SDS011;15925;51.222;5.678;2022-10-17T06:36:31;8.40;;;1.90;;
28772;SDS011;15925;51.222;5.678;2022-10-17T06:38:57;4.22;;;1.95;;
28772;SDS011;15925;51.222;5.678;2022-10-17T06:41:32;3.35;;;1.75;;
28772;SDS011;15925;51.222;5.678;2022-10-17T06:44:03;3.83;;;1.85;;
28772;SDS011;15925;51.222;5.678;2022-10-17T06:47:08;8.15;;;1.95;;
28772;SDS011;15925;51.222;5.678;2022-10-17T06:49:35;4.97;;;2.30;;
28772;SDS011;15925;51.222;5.678;2022-10-17T06:52:26;9.68;;;2.00;;
28772;SDS011;15925;51.222;5.678;2022-10-17T06:55:12;3.83;;;2.17;;
28772;SDS011;15925;51.222;5.678;2022-10-17T06:57:46;2.28;;;1.50;;
28772;SDS011;15925;51.222;5.678;2022-10-17T07:00:41;3.50;;;1.90;;
28772;SDS011;15925;51.222;5.678;2022-10-17T07:03:09;10.90;;;2.20;;
28772;SDS011;15925;51.222;5.678;2022-10-17T07:05:35;4.77;;;2.20;;
28772;SDS011;15925;51.222;5.678;2022-10-17T07:08:00;4.50;;;1.88;;
28772;SDS011;15925;51.222;5.678;2022-10-17T07:10:28;2.97;;;1.77;;
28772;SDS011;15925;51.222;5.678;2022-10-17T07:12:54;2.30;;;1.70;;
28772;SDS011;15925;51.222;5.678;2022-10-17T07:15:19;4.20;;;1.90;;
28772;SDS011;15925;51.222;5.678;2022-10-17T07:17:48;3.10;;;1.67;;
28772;SDS011;15925;51.222;5.678;2022-10-17T07:20:18;5.90;;;2.15;;
28772;SDS011;15925;51.222;5.678;2022-10-17T07:22:44;6.45;;;2.05;;
28772;SDS011;15925;51.222;5.678;2022-10-17T07:25:10;11.83;;;2.30;;
28772;SDS011;15925;51.222;5.678;2022-10-17T07:27:42;5.53;;;2.13;;
28772;SDS011;15925;51.222;5.678;2022-10-17T07:30:08;2.43;;;1.87;;
28772;SDS011;15925;51.222;5.678;2022-10-17T07:32:37;3.08;;;2.03;;
28772;SDS011;15925;51.222;5.678;2022-10-17T07:35:04;4.07;;;1.98;;
28772;SDS011;15925;51.222;5.678;2022-10-17T07:37:30;22.23;;;2.33;;
28772;SDS011;15925;51.222;5.678;2022-10-17T07:39:57;2.42;;;1.48;;
28772;SDS011;15925;51.222;5.678;2022-10-17T07:47:18;5.38;;;1.45;;
28772;SDS011;15925;51.222;5.678;2022-10-17T07:49:46;3.58;;;1.95;;
28772;SDS011;15925;51.222;5.678;2022-10-17T07:52:12;8.43;;;2.10;;
28772;SDS011;15925;51.222;5.678;2022-10-17T07:54:38;7.68;;;1.77;;
28772;SDS011;15925;51.222;5.678;2022-10-17T07:57:05;4.75;;;1.98;;
28772;SDS011;15925;51.222;5.678;2022-10-17T07:59:34;2.10;;;1.80;;
28772;SDS011;15925;51.222;5.678;2022-10-17T08:02:01;3.13;;;2.25;;
28772;SDS011;15925;51.222;5.678;2022-10-17T08:04:28;3.92;;;1.90;;
28772;SDS011;15925;51.222;5.678;2022-10-17T08:06:53;9.50;;;2.42;;
28772;SDS011;15925;51.222;5.678;2022-10-17T08:09:19;3.57;;;1.87;;
28772;SDS011;15925;51.222;5.678;2022-10-17T08:11:45;9.88;;;1.98;;
28772;SDS011;15925;51.222;5.678;2022-10-17T08:14:12;4.03;;;1.85;;
28772;SDS011;15925;51.222;5.678;2022-10-17T08:16:41;11.40;;;2.05;;
28772;SDS011;15925;51.222;5.678;2022-10-17T08:19:07;8.80;;;2.60;;
28772;SDS011;15925;51.222;5.678;2022-10-17T08:21:35;3.75;;;1.98;;
28772;SDS011;15925;51.222;5.678;2022-10-17T08:24:01;3.47;;;1.40;;
28772;SDS011;15925;51.222;5.678;2022-10-17T08:26:27;2.53;;;1.60;;
28772;SDS011;15925;51.222;5.678;2022-10-17T08:28:53;8.50;;;1.95;;
28772;SDS011;15925;51.222;5.678;2022-10-17T08:31:19;5.80;;;1.50;;
28772;SDS011;15925;51.222;5.678;2022-10-17T08:33:46;2.75;;;1.58;;
28772;SDS011;15925;51.222;5.678;2022-10-17T08:36:14;4.72;;;2.08;;
28772;SDS011;15925;51.222;5.678;2022-10-17T08:38:42;11.90;;;1.55;;
28772;SDS011;15925;51.222;5.678;2022-10-17T08:41:19;5.75;;;1.63;;
28772;SDS011;15925;51.222;5.678;2022-10-17T08:46:40;4.57;;;1.88;;
28772;SDS011;15925;51.222;5.678;2022-10-17T08:49:31;4.72;;;1.55;;
28772;SDS011;15925;51.222;5.678;2022-10-17T08:52:06;9.27;;;2.35;;
28772;SDS011;15925;51.222;5.678;2022-10-17T08:54:54;7.57;;;2.28;;
28772;SDS011;15925;51.222;5.678;2022-10-17T08:57:20;3.23;;;1.50;;
28772;SDS011;15925;51.222;5.678;2022-10-17T08:59:50;4.00;;;2.35;;
28772;SDS011;15925;51.222;5.678;2022-10-17T09:18:34;7.22;;;1.80;;
28772;SDS011;15925;51.222;5.678;2022-10-17T09:23:43;14.48;;;2.35;;
28772;SDS011;15925;51.222;5.678;2022-10-17T09:26:13;11.18;;;2.10;;
28772;SDS011;15925;51.222;5.678;2022-10-17T09:28:39;8.10;;;1.50;;
28772;SDS011;15925;51.222;5.678;2022-10-17T09:31:10;2.03;;;1.60;;
28772;SDS011;15925;51.222;5.678;2022-10-17T09:33:46;7.63;;;2.25;;
28772;SDS011;15925;51.222;5.678;2022-10-17T09:38:49;9.95;;;2.00;;
28772;SDS011;15925;51.222;5.678;2022-10-17T09:41:19;5.75;;;1.88;;
28772;SDS011;15925;51.222;5.678;2022-10-17T09:44:22;5.93;;;2.25;;
28772;SDS011;15925;51.222;5.678;2022-10-17T09:47:14;7.93;;;1.35;;
28772;SDS011;15925;51.222;5.678;2022-10-17T09:49:48;8.23;;;2.28;;
28772;SDS011;15925;51.222;5.678;2022-10-17T09:54:49;8.50;;;1.83;;
28772;SDS011;15925;51.222;5.678;2022-10-17T09:57:24;7.88;;;2.35;;
28772;SDS011;15925;51.222;5.678;2022-10-17T10:02:38;10.63;;;2.60;;
28772;SDS011;15925;51.222;5.678;2022-10-17T10:05:08;4.47;;;1.80;;
28772;SDS011;15925;51.222;5.678;2022-10-17T10:08:00;9.43;;;1.92;;
28772;SDS011;15925;51.222;5.678;2022-10-17T10:10:29;6.13;;;2.30;;
28772;SDS011;15925;51.222;5.678;2022-10-17T10:15:34;6.50;;;1.83;;
28772;SDS011;15925;51.222;5.678;2022-10-17T10:18:02;2.92;;;1.60;;
28772;SDS011;15925;51.222;5.678;2022-10-17T10:21:07;3.28;;;1.90;;
28772;SDS011;15925;51.222;5.678;2022-10-17T10:23:43;4.90;;;2.22;;
28772;SDS011;15925;51.222;5.678;2022-10-17T10:26:23;3.20;;;1.90;;
28772;SDS011;15925;51.222;5.678;2022-10-17T10:31:36;6.85;;;2.20;;
28772;SDS011;15925;51.222;5.678;2022-10-17T10:34:14;5.32;;;1.73;;
28772;SDS011;15925;51.222;5.678;2022-10-17T10:36:54;7.95;;;2.88;;
28772;SDS011;15925;51.222;5.678;2022-10-17T10:42:56;6.90;;;1.83;;
28772;SDS011;15925;51.222;5.678;2022-10-17T10:55:54;4.95;;;2.10;;
28772;SDS011;15925;51.222;5.678;2022-10-17T11:01:26;2.42;;;1.70;;
28772;SDS011;15925;51.222;5.678;2022-10-17T11:06:35;13.90;;;2.22;;
28772;SDS011;15925;51.222;5.678;2022-10-17T11:09:25;7.68;;;2.38;;
28772;SDS011;15925;51.222;5.678;2022-10-17T11:12:04;7.20;;;1.80;;
28772;SDS011;15925;51.222;5.678;2022-10-17T11:14:37;6.30;;;2.13;;
28772;SDS011;15925;51.222;5.678;2022-10-17T11:17:26;4.10;;;2.15;;
28772;SDS011;15925;51.222;5.678;2022-10-17T11:22:35;3.47;;;1.80;;
28772;SDS011;15925;51.222;5.678;2022-10-17T11:28:01;3.70;;;2.13;;
28772;SDS011;15925;51.222;5.678;2022-10-17T11:30:29;5.90;;;2.33;;
28772;SDS011;15925;51.222;5.678;2022-10-17T11:33:03;9.13;;;1.98;;
28772;SDS011;15925;51.222;5.678;2022-10-17T11:35:38;3.47;;;2.10;;
28772;SDS011;15925;51.222;5.678;2022-10-17T11:41:13;5.55;;;2.55;;
28772;SDS011;15925;51.222;5.678;2022-10-17T11:43:50;7.65;;;2.92;;
28772;SDS011;15925;51.222;5.678;2022-10-17T11:46:22;10.48;;;2.65;;
28772;SDS011;15925;51.222;5.678;2022-10-17T11:49:23;4.88;;;2.47;;
28772;SDS011;15925;51.222;5.678;2022-10-17T11:51:48;4.40;;;2.08;;
28772;SDS011;15925;51.222;5.678;2022-10-17T11:54:23;3.10;;;1.88;;
28772;SDS011;15925;51.222;5.678;2022-10-17T11:57:14;6.40;;;2.20;;
28772;SDS011;15925;51.222;5.678;2022-10-17T12:05:39;5.57;;;1.85;;
28772;SDS011;15925;51.222;5.678;2022-10-17T12:08:20;5.45;;;1.92;;
28772;SDS011;15925;51.222;5.678;2022-10-17T12:11:23;4.57;;;2.35;;
28772;SDS011;15925;51.222;5.678;2022-10-17T12:13:59;11.82;;;2.05;;
28772;SDS011;15925;51.222;5.678;2022-10-17T12:21:26;8.18;;;2.15;;
28772;SDS011;15925;51.222;5.678;2022-10-17T12:23:53;6.53;;;2.00;;
28772;SDS011;15925;51.222;5.678;2022-10-17T12:26:26;6.13;;;2.38;;
28772;SDS011;15925;51.222;5.678;2022-10-17T12:28:53;6.78;;;1.90;;
28772;SDS011;15925;51.222;5.678;2022-10-17T12:31:21;10.15;;;1.90;;
28772;SDS011;15925;51.222;5.678;2022-10-17T12:33:55;4.50;;;1.92;;
28772;SDS011;15925;51.222;5.678;2022-10-17T12:41:51;3.67;;;1.42;;
28772;SDS011;15925;51.222;5.678;2022-10-17T12:46:48;12.90;;;2.13;;
28772;SDS011;15925;51.222;5.678;2022-10-17T12:49:23;3.20;;;1.70;;
28772;SDS011;15925;51.222;5.678;2022-10-17T12:54:58;3.33;;;2.10;;
28772;SDS011;15925;51.222;5.678;2022-10-17T13:00:01;7.40;;;1.90;;
28772;SDS011;15925;51.222;5.678;2022-10-17T13:02:51;2.20;;;1.50;;
28772;SDS011;15925;51.222;5.678;2022-10-17T13:05:27;5.70;;;2.40;;
28772;SDS011;15925;51.222;5.678;2022-10-17T13:07:56;5.43;;;2.13;;
28772;SDS011;15925;51.222;5.678;2022-10-17T13:10:28;3.67;;;1.98;;
28772;SDS011;15925;51.222;5.678;2022-10-17T13:13:19;5.70;;;2.20;;
28772;SDS011;15925;51.222;5.678;2022-10-17T13:15:50;3.67;;;2.25;;
28772;SDS011;15925;51.222;5.678;2022-10-17T13:18:21;5.95;;;2.40;;
28772;SDS011;15925;51.222;5.678;2022-10-17T13:20:56;6.13;;;2.65;;
28772;SDS011;15925;51.222;5.678;2022-10-17T13:23:35;5.88;;;2.10;;
28772;SDS011;15925;51.222;5.678;2022-10-17T13:26:06;8.85;;;2.10;;
28772;SDS011;15925;51.222;5.678;2022-10-17T13:28:44;3.30;;;1.85;;
28772;SDS011;15925;51.222;5.678;2022-10-17T13:31:36;5.22;;;1.80;;
28772;SDS011;15925;51.222;5.678;2022-10-17T13:34:04;6.50;;;1.90;;
28772;SDS011;15925;51.222;5.678;2022-10-17T13:36:42;10.55;;;2.17;;
28772;SDS011;15925;51.222;5.678;2022-10-17T13:39:12;4.88;;;2.00;;
28772;SDS011;15925;51.222;5.678;2022-10-17T13:41:41;7.35;;;2.30;;
28772;SDS011;15925;51.222;5.678;2022-10-17T13:44:11;3.10;;;1.63;;
28772;SDS011;15925;51.222;5.678;2022-10-17T13:46:39;8.35;;;2.28;;
28772;SDS011;15925;51.222;5.678;2022-10-17T13:49:10;4.03;;;2.13;;
28772;SDS011;15925;51.222;5.678;2022-10-17T13:51:54;5.32;;;2.20;;
28772;SDS011;15925;51.222;5.678;2022-10-17T13:57:00;5.43;;;1.85;;
28772;SDS011;15925;51.222;5.678;2022-10-17T13:59:28;2.78;;;1.73;;
28772;SDS011;15925;51.222;5.678;2022-10-17T14:02:03;5.65;;;1.73;;
28772;SDS011;15925;51.222;5.678;2022-10-17T14:04:36;2.88;;;2.13;;
28772;SDS011;15925;51.222;5.678;2022-10-17T14:07:03;11.50;;;2.13;;
28772;SDS011;15925;51.222;5.678;2022-10-17T14:09:31;2.92;;;1.60;;
28772;SDS011;15925;51.222;5.678;2022-10-17T14:16:52;3.03;;;1.88;;
28772;SDS011;15925;51.222;5.678;2022-10-17T14:19:28;4.50;;;2.72;;
28772;SDS011;15925;51.222;5.678;2022-10-17T14:24:51;2.80;;;1.83;;
28772;SDS011;15925;51.222;5.678;2022-10-17T14:29:55;4.60;;;2.35;;
28772;SDS011;15925;51.222;5.678;2022-10-17T14:32:25;15.80;;;3.00;;
28772;SDS011;15925;51.222;5.678;2022-10-17T14:34:54;9.85;;;2.50;;
28772;SDS011;15925;51.222;5.678;2022-10-17T14:42:43;4.95;;;2.72;;
28772;SDS011;15925;51.222;5.678;2022-10-17T14:48:01;8.00;;;2.87;;
28772;SDS011;15925;51.222;5.678;2022-10-17T14:50:39;5.15;;;2.42;;
28772;SDS011;15925;51.222;5.678;2022-10-17T14:55:36;9.77;;;2.67;;
28772;SDS011;15925;51.222;5.678;2022-10-17T14:58:17;10.27;;;3.42;;
28772;SDS011;15925;51.222;5.678;2022-10-17T15:00:47;7.82;;;3.78;;
28772;SDS011;15925;51.222;5.678;2022-10-17T15:03:13;8.57;;;2.50;;
28772;SDS011;15925;51.222;5.678;2022-10-17T15:05:39;4.53;;;2.67;;
28772;SDS011;15925;51.222;5.678;2022-10-17T15:08:09;7.77;;;3.50;;
28772;SDS011;15925;51.222;5.678;2022-10-17T15:10:39;11.10;;;3.03;;
28772;SDS011;15925;51.222;5.678;2022-10-17T15:13:07;6.75;;;3.22;;
28772;SDS011;15925;51.222;5.678;2022-10-17T15:15:34;8.05;;;3.13;;
28772;SDS011;15925;51.222;5.678;2022-10-17T15:18:02;10.52;;;3.35;;
28772;SDS011;15925;51.222;5.678;2022-10-17T15:20:28;7.05;;;3.22;;
28772;SDS011;15925;51.222;5.678;2022-10-17T15:22:58;4.15;;;2.95;;
28772;SDS011;15925;51.222;5.678;2022-10-17T15:25:25;3.38;;;2.67;;
28772;SDS011;15925;51.222;5.678;2022-10-17T15:27:53;7.40;;;3.33;;
28772;SDS011;15925;51.222;5.678;2022-10-17T15:30:23;11.82;;;3.30;;
28772;SDS011;15925;51.222;5.678;2022-10-17T15:32:50;9.32;;;3.00;;
28772;SDS011;15925;51.222;5.678;2022-10-17T15:35:17;9.10;;;2.88;;
28772;SDS011;15925;51.222;5.678;2022-10-17T15:37:43;5.25;;;3.03;;
28772;SDS011;15925;51.222;5.678;2022-10-17T15:40:14;6.28;;;2.50;;
28772;SDS011;15925;51.222;5.678;2022-10-17T15:42:42;4.47;;;2.40;;
28772;SDS011;15925;51.222;5.678;2022-10-17T15:45:11;16.38;;;2.88;;
28772;SDS011;15925;51.222;5.678;2022-10-17T15:47:40;9.75;;;3.28;;
28772;SDS011;15925;51.222;5.678;2022-10-17T15:50:09;6.35;;;3.00;;
28772;SDS011;15925;51.222;5.678;2022-10-17T15:52:38;12.80;;;4.10;;
28772;SDS011;15925;51.222;5.678;2022-10-17T15:55:05;7.07;;;3.22;;
28772;SDS011;15925;51.222;5.678;2022-10-17T15:57:33;14.57;;;3.88;;
28772;SDS011;15925;51.222;5.678;2022-10-17T16:00:03;6.72;;;3.35;;
28772;SDS011;15925;51.222;5.678;2022-10-17T16:02:34;13.63;;;3.47;;
28772;SDS011;15925;51.222;5.678;2022-10-17T16:05:00;17.63;;;2.97;;
28772;SDS011;15925;51.222;5.678;2022-10-17T16:07:26;4.33;;;2.37;;
28772;SDS011;15925;51.222;5.678;2022-10-17T16:09:51;10.23;;;2.83;;
28772;SDS011;15925;51.222;5.678;2022-10-17T16:12:19;4.70;;;3.07;;
28772;SDS011;15925;51.222;5.678;2022-10-17T16:14:50;9.00;;;3.10;;
28772;SDS011;15925;51.222;5.678;2022-10-17T16:17:16;6.60;;;2.90;;
28772;SDS011;15925;51.222;5.678;2022-10-17T16:19:42;8.90;;;3.60;;
28772;SDS011;15925;51.222;5.678;2022-10-17T16:22:30;9.10;;;3.60;;
28772;SDS011;15925;51.222;5.678;2022-10-17T16:24:56;7.90;;;2.83;;
28772;SDS011;15925;51.222;5.678;2022-10-17T16:29:48;5.47;;;3.00;;
28772;SDS011;15925;51.222;5.678;2022-10-17T16:32:14;6.63;;;2.67;;
28772;SDS011;15925;51.222;5.678;2022-10-17T16:34:39;8.10;;;3.73;;
28772;SDS011;15925;51.222;5.678;2022-10-17T16:37:05;7.70;;;3.07;;
28772;SDS011;15925;51.222;5.678;2022-10-17T16:39:31;10.83;;;3.47;;
28772;SDS011;15925;51.222;5.678;2022-10-17T16:41:56;4.50;;;2.97;;
28772;SDS011;15925;51.222;5.678;2022-10-17T16:44:22;21.63;;;3.50;;
28772;SDS011;15925;51.222;5.678;2022-10-17T16:46:48;16.13;;;3.30;;
28772;SDS011;15925;51.222;5.678;2022-10-17T16:49:14;4.88;;;3.08;;
28772;SDS011;15925;51.222;5.678;2022-10-17T16:51:42;7.18;;;2.90;;
28772;SDS011;15925;51.222;5.678;2022-10-17T16:54:08;3.80;;;2.45;;
28772;SDS011;15925;51.222;5.678;2022-10-17T16:56:33;5.27;;;3.10;;
28772;SDS011;15925;51.222;5.678;2022-10-17T16:58:59;6.87;;;2.93;;
28772;SDS011;15925;51.222;5.678;2022-10-17T17:01:25;4.85;;;2.83;;
28772;SDS011;15925;51.222;5.678;2022-10-17T17:03:53;3.75;;;2.30;;
28772;SDS011;15925;51.222;5.678;2022-10-17T17:06:21;7.63;;;3.13;;
28772;SDS011;15925;51.222;5.678;2022-10-17T17:08:50;7.93;;;3.38;;
28772;SDS011;15925;51.222;5.678;2022-10-17T17:11:17;6.20;;;2.92;;
28772;SDS011;15925;51.222;5.678;2022-10-17T17:13:44;6.47;;;3.38;;
28772;SDS011;15925;51.222;5.678;2022-10-17T17:16:15;9.45;;;3.03;;
28772;SDS011;15925;51.222;5.678;2022-10-17T17:18:42;6.20;;;3.22;;
28772;SDS011;15925;51.222;5.678;2022-10-17T17:21:10;6.47;;;3.28;;
28772;SDS011;15925;51.222;5.678;2022-10-17T17:23:39;5.28;;;2.30;;
28772;SDS011;15925;51.222;5.678;2022-10-17T17:26:07;15.70;;;3.17;;
28772;SDS011;15925;51.222;5.678;2022-10-17T17:28:34;8.55;;;2.53;;
28772;SDS011;15925;51.222;5.678;2022-10-17T17:31:00;9.60;;;3.33;;
28772;SDS011;15925;51.222;5.678;2022-10-17T17:33:29;3.58;;;2.22;;
28772;SDS011;15925;51.222;5.678;2022-10-17T17:35:58;7.45;;;2.78;;